sensor_id;sensor_type;location;lat;lon;timestamp;P1;durP1;ratioP1;P2;durP2;ratioP2
56391;SDS011;42289;53.582;9.714;2022-10-22T00:01:53;47.28;;;21.90;;
56391;SDS011;42289;53.582;9.714;2022-10-22T00:04:20;50.22;;;20.40;;
56391;SDS011;42289;53.582;9.714;2022-10-22T00:06:49;43.30;;;20.42;;
56391;SDS011;42289;53.582;9.714;2022-10-22T00:09:17;47.60;;;22.60;;
56391;SDS011;42289;53.582;9.714;2022-10-22T00:11:44;45.00;;;21.52;;
56391;SDS011;42289;53.582;9.714;2022-10-22T00:14:11;45.03;;;21.60;;
56391;SDS011;42289;53.582;9.714;2022-10-22T00:16:37;46.63;;;21.10;;
56391;SDS011;42289;53.582;9.714;2022-10-22T00:19:04;42.95;;;21.48;;
56391;SDS011;42289;53.582;9.714;2022-10-22T00:21:30;44.05;;;20.15;;
56391;SDS011;42289;53.582;9.714;2022-10-22T00:23:57;53.45;;;22.33;;
56391;SDS011;42289;53.582;9.714;2022-10-22T00:26:25;47.28;;;22.67;;
56391;SDS011;42289;53.582;9.714;2022-10-22T00:28:52;46.45;;;22.02;;
56391;SDS011;42289;53.582;9.714;2022-10-22T00:31:19;48.53;;;21.33;;
56391;SDS011;42289;53.582;9.714;2022-10-22T00:33:46;45.45;;;21.38;;
56391;SDS011;42289;53.582;9.714;2022-10-22T00:36:13;43.40;;;22.08;;
56391;SDS011;42289;53.582;9.714;2022-10-22T00:38:39;49.55;;;23.17;;
56391;SDS011;42289;53.582;9.714;2022-10-22T00:41:06;49.70;;;23.00;;
56391;SDS011;42289;53.582;9.714;2022-10-22T00:46:22;50.67;;;22.33;;
56391;SDS011;42289;53.582;9.714;2022-10-22T00:48:49;47.55;;;22.52;;
56391;SDS011;42289;53.582;9.714;2022-10-22T00:51:20;42.45;;;20.50;;
56391;SDS011;42289;53.582;9.714;2022-10-22T00:53:49;40.35;;;19.67;;
56391;SDS011;42289;53.582;9.714;2022-10-22T00:56:20;43.88;;;20.27;;
56391;SDS011;42289;53.582;9.714;2022-10-22T00:58:49;47.92;;;19.17;;
56391;SDS011;42289;53.582;9.714;2022-10-22T01:01:24;119.32;;;20.10;;
56391;SDS011;42289;53.582;9.714;2022-10-22T01:03:52;42.75;;;18.92;;
56391;SDS011;42289;53.582;9.714;2022-10-22T01:06:21;43.17;;;19.25;;
56391;SDS011;42289;53.582;9.714;2022-10-22T01:08:54;84.78;;;20.58;;
56391;SDS011;42289;53.582;9.714;2022-10-22T01:11:33;48.60;;;17.92;;
56391;SDS011;42289;53.582;9.714;2022-10-22T01:14:11;79.43;;;19.00;;
56391;SDS011;42289;53.582;9.714;2022-10-22T01:16:46;53.35;;;19.17;;
56391;SDS011;42289;53.582;9.714;2022-10-22T01:19:31;40.85;;;19.38;;
56391;SDS011;42289;53.582;9.714;2022-10-22T01:22:17;44.28;;;19.02;;
56391;SDS011;42289;53.582;9.714;2022-10-22T01:24:52;41.10;;;19.70;;
56391;SDS011;42289;53.582;9.714;2022-10-22T01:27:25;113.57;;;20.17;;
56391;SDS011;42289;53.582;9.714;2022-10-22T01:30:03;171.80;;;23.25;;
56391;SDS011;42289;53.582;9.714;2022-10-22T01:32:35;46.58;;;17.40;;
56391;SDS011;42289;53.582;9.714;2022-10-22T01:35:07;46.10;;;17.98;;
56391;SDS011;42289;53.582;9.714;2022-10-22T01:37:38;38.60;;;19.73;;
56391;SDS011;42289;53.582;9.714;2022-10-22T01:40:11;50.90;;;18.60;;
56391;SDS011;42289;53.582;9.714;2022-10-22T01:42:41;41.33;;;19.75;;
56391;SDS011;42289;53.582;9.714;2022-10-22T01:45:11;44.22;;;20.13;;
56391;SDS011;42289;53.582;9.714;2022-10-22T01:47:41;47.42;;;19.85;;
56391;SDS011;42289;53.582;9.714;2022-10-22T01:50:31;43.85;;;19.92;;
56391;SDS011;42289;53.582;9.714;2022-10-22T01:56:02;46.05;;;21.02;;
56391;SDS011;42289;53.582;9.714;2022-10-22T01:58:41;52.10;;;22.05;;
56391;SDS011;42289;53.582;9.714;2022-10-22T02:01:20;54.25;;;22.92;;
56391;SDS011;42289;53.582;9.714;2022-10-22T02:03:55;54.72;;;23.52;;
56391;SDS011;42289;53.582;9.714;2022-10-22T02:06:26;51.08;;;21.85;;
56391;SDS011;42289;53.582;9.714;2022-10-22T02:08:56;89.47;;;21.65;;
56391;SDS011;42289;53.582;9.714;2022-10-22T02:11:25;74.15;;;20.65;;
56391;SDS011;42289;53.582;9.714;2022-10-22T02:13:52;86.13;;;21.10;;
56391;SDS011;42289;53.582;9.714;2022-10-22T02:16:24;74.30;;;19.75;;
56391;SDS011;42289;53.582;9.714;2022-10-22T02:18:58;43.08;;;21.23;;
56391;SDS011;42289;53.582;9.714;2022-10-22T02:21:29;49.42;;;22.55;;
56391;SDS011;42289;53.582;9.714;2022-10-22T02:23:58;54.17;;;21.20;;
56391;SDS011;42289;53.582;9.714;2022-10-22T02:26:27;57.45;;;22.13;;
56391;SDS011;42289;53.582;9.714;2022-10-22T02:28:58;91.63;;;23.02;;
56391;SDS011;42289;53.582;9.714;2022-10-22T02:31:32;55.43;;;22.07;;
56391;SDS011;42289;53.582;9.714;2022-10-22T02:34:04;103.80;;;22.43;;
56391;SDS011;42289;53.582;9.714;2022-10-22T02:36:35;144.70;;;24.20;;
56391;SDS011;42289;53.582;9.714;2022-10-22T02:39:03;80.30;;;20.30;;
56391;SDS011;42289;53.582;9.714;2022-10-22T02:41:33;92.13;;;21.00;;
56391;SDS011;42289;53.582;9.714;2022-10-22T02:43:59;339.00;;;33.42;;
56391;SDS011;42289;53.582;9.714;2022-10-22T02:46:26;76.50;;;18.52;;
56391;SDS011;42289;53.582;9.714;2022-10-22T02:48:55;57.63;;;19.55;;
56391;SDS011;42289;53.582;9.714;2022-10-22T02:51:21;115.22;;;21.13;;
56391;SDS011;42289;53.582;9.714;2022-10-22T02:53:47;142.32;;;22.80;;
56391;SDS011;42289;53.582;9.714;2022-10-22T02:56:14;66.35;;;20.08;;
56391;SDS011;42289;53.582;9.714;2022-10-22T02:58:40;49.28;;;21.35;;
56391;SDS011;42289;53.582;9.714;2022-10-22T03:01:07;44.47;;;20.98;;
56391;SDS011;42289;53.582;9.714;2022-10-22T03:03:33;111.78;;;22.48;;
56391;SDS011;42289;53.582;9.714;2022-10-22T03:06:01;97.20;;;23.25;;
56391;SDS011;42289;53.582;9.714;2022-10-22T03:08:27;70.32;;;20.52;;
56391;SDS011;42289;53.582;9.714;2022-10-22T03:10:54;51.85;;;22.45;;
56391;SDS011;42289;53.582;9.714;2022-10-22T03:13:20;51.40;;;23.67;;
56391;SDS011;42289;53.582;9.714;2022-10-22T03:15:47;78.32;;;23.20;;
56391;SDS011;42289;53.582;9.714;2022-10-22T03:18:14;52.40;;;22.25;;
56391;SDS011;42289;53.582;9.714;2022-10-22T03:20:40;55.53;;;22.33;;
56391;SDS011;42289;53.582;9.714;2022-10-22T03:23:08;67.60;;;25.52;;
56391;SDS011;42289;53.582;9.714;2022-10-22T03:25:35;73.72;;;25.95;;
56391;SDS011;42289;53.582;9.714;2022-10-22T03:28:03;51.33;;;23.17;;
56391;SDS011;42289;53.582;9.714;2022-10-22T03:30:31;64.85;;;23.75;;
56391;SDS011;42289;53.582;9.714;2022-10-22T03:32:58;62.70;;;25.83;;
56391;SDS011;42289;53.582;9.714;2022-10-22T03:35:24;65.30;;;25.52;;
56391;SDS011;42289;53.582;9.714;2022-10-22T03:37:51;58.65;;;24.15;;
56391;SDS011;42289;53.582;9.714;2022-10-22T03:40:20;71.15;;;26.05;;
56391;SDS011;42289;53.582;9.714;2022-10-22T03:42:46;57.70;;;24.70;;
56391;SDS011;42289;53.582;9.714;2022-10-22T03:45:13;64.85;;;25.10;;
56391;SDS011;42289;53.582;9.714;2022-10-22T03:47:39;64.50;;;25.17;;
56391;SDS011;42289;53.582;9.714;2022-10-22T03:50:06;62.47;;;25.73;;
56391;SDS011;42289;53.582;9.714;2022-10-22T03:52:34;118.55;;;26.75;;
56391;SDS011;42289;53.582;9.714;2022-10-22T03:55:02;82.07;;;25.58;;
56391;SDS011;42289;53.582;9.714;2022-10-22T03:57:30;81.53;;;25.27;;
56391;SDS011;42289;53.582;9.714;2022-10-22T03:59:57;80.68;;;25.30;;
56391;SDS011;42289;53.582;9.714;2022-10-22T04:02:23;96.07;;;25.45;;
56391;SDS011;42289;53.582;9.714;2022-10-22T04:04:50;96.10;;;25.38;;
56391;SDS011;42289;53.582;9.714;2022-10-22T04:07:16;66.05;;;25.38;;
56391;SDS011;42289;53.582;9.714;2022-10-22T04:09:42;72.30;;;24.15;;
56391;SDS011;42289;53.582;9.714;2022-10-22T04:12:09;86.55;;;25.45;;
56391;SDS011;42289;53.582;9.714;2022-10-22T04:14:36;70.10;;;24.63;;
56391;SDS011;42289;53.582;9.714;2022-10-22T04:17:03;75.00;;;24.83;;
56391;SDS011;42289;53.582;9.714;2022-10-22T04:19:29;90.68;;;25.65;;
56391;SDS011;42289;53.582;9.714;2022-10-22T04:21:56;120.00;;;25.15;;
56391;SDS011;42289;53.582;9.714;2022-10-22T04:24:23;93.55;;;25.15;;
56391;SDS011;42289;53.582;9.714;2022-10-22T04:26:49;96.05;;;26.00;;
56391;SDS011;42289;53.582;9.714;2022-10-22T04:29:15;74.30;;;25.52;;
56391;SDS011;42289;53.582;9.714;2022-10-22T04:31:43;69.35;;;23.35;;
56391;SDS011;42289;53.582;9.714;2022-10-22T04:34:09;79.80;;;24.23;;
56391;SDS011;42289;53.582;9.714;2022-10-22T04:36:36;135.98;;;24.58;;
56391;SDS011;42289;53.582;9.714;2022-10-22T04:39:03;61.88;;;22.35;;
56391;SDS011;42289;53.582;9.714;2022-10-22T04:41:30;225.98;;;28.30;;
56391;SDS011;42289;53.582;9.714;2022-10-22T04:43:58;135.70;;;24.00;;
56391;SDS011;42289;53.582;9.714;2022-10-22T04:46:25;73.28;;;23.45;;
56391;SDS011;42289;53.582;9.714;2022-10-22T04:48:56;178.63;;;27.65;;
56391;SDS011;42289;53.582;9.714;2022-10-22T04:51:23;102.18;;;25.25;;
56391;SDS011;42289;53.582;9.714;2022-10-22T04:53:51;63.63;;;23.42;;
56391;SDS011;42289;53.582;9.714;2022-10-22T04:56:18;119.95;;;26.38;;
56391;SDS011;42289;53.582;9.714;2022-10-22T04:58:46;111.55;;;27.90;;
56391;SDS011;42289;53.582;9.714;2022-10-22T05:01:14;134.18;;;28.27;;
56391;SDS011;42289;53.582;9.714;2022-10-22T05:03:43;160.32;;;29.52;;
56391;SDS011;42289;53.582;9.714;2022-10-22T05:06:11;137.68;;;28.83;;
56391;SDS011;42289;53.582;9.714;2022-10-22T05:08:38;100.43;;;28.02;;
56391;SDS011;42289;53.582;9.714;2022-10-22T05:11:11;106.15;;;27.95;;
56391;SDS011;42289;53.582;9.714;2022-10-22T05:13:38;79.72;;;26.17;;
56391;SDS011;42289;53.582;9.714;2022-10-22T05:16:05;75.03;;;25.70;;
56391;SDS011;42289;53.582;9.714;2022-10-22T05:18:32;90.35;;;25.92;;
56391;SDS011;42289;53.582;9.714;2022-10-22T05:21:00;111.70;;;24.90;;
56391;SDS011;42289;53.582;9.714;2022-10-22T05:23:28;122.25;;;26.33;;
56391;SDS011;42289;53.582;9.714;2022-10-22T05:25:54;170.38;;;28.65;;
56391;SDS011;42289;53.582;9.714;2022-10-22T05:28:21;152.68;;;27.45;;
56391;SDS011;42289;53.582;9.714;2022-10-22T05:30:51;122.25;;;26.40;;
56391;SDS011;42289;53.582;9.714;2022-10-22T05:33:18;118.38;;;24.85;;
56391;SDS011;42289;53.582;9.714;2022-10-22T05:35:46;92.57;;;24.88;;
56391;SDS011;42289;53.582;9.714;2022-10-22T05:38:12;73.72;;;22.15;;
56391;SDS011;42289;53.582;9.714;2022-10-22T05:40:40;131.15;;;24.65;;
56391;SDS011;42289;53.582;9.714;2022-10-22T05:43:06;69.20;;;23.73;;
56391;SDS011;42289;53.582;9.714;2022-10-22T05:45:34;66.20;;;24.13;;
56391;SDS011;42289;53.582;9.714;2022-10-22T05:48:01;66.35;;;24.77;;
56391;SDS011;42289;53.582;9.714;2022-10-22T05:50:27;52.00;;;24.65;;
56391;SDS011;42289;53.582;9.714;2022-10-22T05:52:54;59.55;;;24.55;;
56391;SDS011;42289;53.582;9.714;2022-10-22T05:55:20;55.20;;;24.33;;
56391;SDS011;42289;53.582;9.714;2022-10-22T05:57:48;66.85;;;26.08;;
56391;SDS011;42289;53.582;9.714;2022-10-22T06:00:14;58.63;;;25.25;;
56391;SDS011;42289;53.582;9.714;2022-10-22T06:02:41;57.13;;;25.55;;
56391;SDS011;42289;53.582;9.714;2022-10-22T06:05:08;57.80;;;24.30;;
56391;SDS011;42289;53.582;9.714;2022-10-22T06:07:35;61.22;;;26.77;;
56391;SDS011;42289;53.582;9.714;2022-10-22T06:10:01;59.13;;;26.33;;
56391;SDS011;42289;53.582;9.714;2022-10-22T06:12:28;66.60;;;26.60;;
56391;SDS011;42289;53.582;9.714;2022-10-22T06:14:56;60.13;;;26.38;;
56391;SDS011;42289;53.582;9.714;2022-10-22T06:17:22;73.78;;;27.58;;
56391;SDS011;42289;53.582;9.714;2022-10-22T06:19:49;77.20;;;28.38;;
56391;SDS011;42289;53.582;9.714;2022-10-22T06:22:15;69.63;;;27.80;;
56391;SDS011;42289;53.582;9.714;2022-10-22T06:24:41;66.13;;;27.58;;
56391;SDS011;42289;53.582;9.714;2022-10-22T06:27:08;66.68;;;27.92;;
56391;SDS011;42289;53.582;9.714;2022-10-22T06:29:34;69.47;;;27.55;;
56391;SDS011;42289;53.582;9.714;2022-10-22T06:32:02;69.57;;;27.35;;
56391;SDS011;42289;53.582;9.714;2022-10-22T06:34:28;69.53;;;27.67;;
56391;SDS011;42289;53.582;9.714;2022-10-22T06:36:55;68.20;;;28.20;;
56391;SDS011;42289;53.582;9.714;2022-10-22T06:39:21;62.50;;;26.85;;
56391;SDS011;42289;53.582;9.714;2022-10-22T06:41:48;65.40;;;26.88;;
56391;SDS011;42289;53.582;9.714;2022-10-22T06:44:15;67.68;;;27.65;;
56391;SDS011;42289;53.582;9.714;2022-10-22T06:46:42;66.07;;;27.80;;
56391;SDS011;42289;53.582;9.714;2022-10-22T06:49:12;62.63;;;27.23;;
56391;SDS011;42289;53.582;9.714;2022-10-22T06:51:39;57.53;;;26.25;;
56391;SDS011;42289;53.582;9.714;2022-10-22T06:54:06;58.72;;;26.90;;
56391;SDS011;42289;53.582;9.714;2022-10-22T06:56:33;63.30;;;27.10;;
56391;SDS011;42289;53.582;9.714;2022-10-22T06:58:59;57.05;;;26.20;;
56391;SDS011;42289;53.582;9.714;2022-10-22T07:01:26;60.28;;;26.25;;
56391;SDS011;42289;53.582;9.714;2022-10-22T07:03:57;60.38;;;26.48;;
56391;SDS011;42289;53.582;9.714;2022-10-22T07:06:26;57.42;;;26.02;;
56391;SDS011;42289;53.582;9.714;2022-10-22T07:08:53;56.83;;;25.98;;
56391;SDS011;42289;53.582;9.714;2022-10-22T07:11:21;58.33;;;25.80;;
56391;SDS011;42289;53.582;9.714;2022-10-22T07:13:50;57.05;;;26.02;;
56391;SDS011;42289;53.582;9.714;2022-10-22T07:16:18;56.08;;;25.85;;
56391;SDS011;42289;53.582;9.714;2022-10-22T07:18:45;54.35;;;25.83;;
56391;SDS011;42289;53.582;9.714;2022-10-22T07:21:12;53.47;;;24.63;;
56391;SDS011;42289;53.582;9.714;2022-10-22T07:23:42;57.40;;;25.45;;
56391;SDS011;42289;53.582;9.714;2022-10-22T07:26:10;54.97;;;26.88;;
56391;SDS011;42289;53.582;9.714;2022-10-22T07:28:38;66.88;;;27.88;;
56391;SDS011;42289;53.582;9.714;2022-10-22T07:31:05;57.78;;;27.55;;
56391;SDS011;42289;53.582;9.714;2022-10-22T07:33:33;56.83;;;25.80;;
56391;SDS011;42289;53.582;9.714;2022-10-22T07:36:01;57.08;;;25.95;;
56391;SDS011;42289;53.582;9.714;2022-10-22T07:38:30;57.20;;;26.98;;
56391;SDS011;42289;53.582;9.714;2022-10-22T07:40:58;54.53;;;25.92;;
56391;SDS011;42289;53.582;9.714;2022-10-22T07:43:25;53.38;;;26.67;;
56391;SDS011;42289;53.582;9.714;2022-10-22T07:45:52;59.97;;;25.95;;
56391;SDS011;42289;53.582;9.714;2022-10-22T07:48:19;54.53;;;25.73;;
56391;SDS011;42289;53.582;9.714;2022-10-22T07:50:47;51.33;;;25.05;;
56391;SDS011;42289;53.582;9.714;2022-10-22T07:53:14;52.58;;;24.83;;
56391;SDS011;42289;53.582;9.714;2022-10-22T07:55:41;52.45;;;26.50;;
56391;SDS011;42289;53.582;9.714;2022-10-22T07:58:09;59.28;;;26.45;;
56391;SDS011;42289;53.582;9.714;2022-10-22T08:00:35;51.35;;;25.20;;
56391;SDS011;42289;53.582;9.714;2022-10-22T08:03:02;53.42;;;24.70;;
56391;SDS011;42289;53.582;9.714;2022-10-22T08:05:28;52.22;;;26.10;;
56391;SDS011;42289;53.582;9.714;2022-10-22T08:07:55;49.65;;;24.17;;
56391;SDS011;42289;53.582;9.714;2022-10-22T08:10:21;48.00;;;23.90;;
56391;SDS011;42289;53.582;9.714;2022-10-22T08:12:47;40.95;;;21.90;;
56391;SDS011;42289;53.582;9.714;2022-10-22T08:15:15;45.55;;;23.08;;
56391;SDS011;42289;53.582;9.714;2022-10-22T08:17:42;46.90;;;23.45;;
56391;SDS011;42289;53.582;9.714;2022-10-22T08:20:09;40.92;;;22.73;;
56391;SDS011;42289;53.582;9.714;2022-10-22T08:22:35;45.05;;;23.17;;
56391;SDS011;42289;53.582;9.714;2022-10-22T08:25:02;43.03;;;22.27;;
56391;SDS011;42289;53.582;9.714;2022-10-22T08:27:29;35.67;;;21.10;;
56391;SDS011;42289;53.582;9.714;2022-10-22T08:29:55;41.58;;;22.05;;
56391;SDS011;42289;53.582;9.714;2022-10-22T08:32:23;46.65;;;22.25;;
56391;SDS011;42289;53.582;9.714;2022-10-22T08:34:50;43.10;;;22.58;;
56391;SDS011;42289;53.582;9.714;2022-10-22T08:37:16;36.25;;;19.95;;
56391;SDS011;42289;53.582;9.714;2022-10-22T08:39:43;37.90;;;21.15;;
56391;SDS011;42289;53.582;9.714;2022-10-22T08:42:16;40.50;;;20.92;;
56391;SDS011;42289;53.582;9.714;2022-10-22T08:45:03;33.00;;;18.77;;
56391;SDS011;42289;53.582;9.714;2022-10-22T08:47:42;33.63;;;19.10;;
56391;SDS011;42289;53.582;9.714;2022-10-22T08:50:22;35.30;;;19.73;;
56391;SDS011;42289;53.582;9.714;2022-10-22T08:52:55;32.22;;;18.70;;
56391;SDS011;42289;53.582;9.714;2022-10-22T08:55:24;32.47;;;17.88;;
56391;SDS011;42289;53.582;9.714;2022-10-22T08:57:53;35.08;;;18.73;;
56391;SDS011;42289;53.582;9.714;2022-10-22T09:00:27;32.40;;;17.45;;
56391;SDS011;42289;53.582;9.714;2022-10-22T09:03:04;31.13;;;17.30;;
56391;SDS011;42289;53.582;9.714;2022-10-22T09:05:46;29.77;;;16.05;;
56391;SDS011;42289;53.582;9.714;2022-10-22T09:08:21;27.92;;;15.65;;
56391;SDS011;42289;53.582;9.714;2022-10-22T09:10:48;28.00;;;15.68;;
56391;SDS011;42289;53.582;9.714;2022-10-22T09:13:17;28.35;;;14.98;;
56391;SDS011;42289;53.582;9.714;2022-10-22T09:15:46;27.13;;;15.05;;
56391;SDS011;42289;53.582;9.714;2022-10-22T09:18:21;27.45;;;14.45;;
56391;SDS011;42289;53.582;9.714;2022-10-22T09:20:57;23.70;;;14.20;;
56391;SDS011;42289;53.582;9.714;2022-10-22T09:23:32;24.80;;;13.27;;
56391;SDS011;42289;53.582;9.714;2022-10-22T09:28:37;23.77;;;13.13;;
56391;SDS011;42289;53.582;9.714;2022-10-22T09:31:07;25.83;;;13.82;;
56391;SDS011;42289;53.582;9.714;2022-10-22T09:33:38;21.75;;;12.50;;
56391;SDS011;42289;53.582;9.714;2022-10-22T09:36:06;21.40;;;12.30;;
56391;SDS011;42289;53.582;9.714;2022-10-22T09:38:33;17.40;;;10.57;;
56391;SDS011;42289;53.582;9.714;2022-10-22T09:41:04;18.58;;;11.23;;
56391;SDS011;42289;53.582;9.714;2022-10-22T09:43:31;21.20;;;10.45;;
56391;SDS011;42289;53.582;9.714;2022-10-22T09:46:00;22.02;;;11.02;;
56391;SDS011;42289;53.582;9.714;2022-10-22T09:48:28;15.27;;;9.75;;
56391;SDS011;42289;53.582;9.714;2022-10-22T09:51:01;19.70;;;9.98;;
56391;SDS011;42289;53.582;9.714;2022-10-22T09:53:34;18.95;;;9.40;;
56391;SDS011;42289;53.582;9.714;2022-10-22T09:56:05;14.98;;;8.70;;
56391;SDS011;42289;53.582;9.714;2022-10-22T09:58:40;13.02;;;7.90;;
56391;SDS011;42289;53.582;9.714;2022-10-22T10:01:14;14.75;;;7.60;;
56391;SDS011;42289;53.582;9.714;2022-10-22T10:03:42;12.60;;;7.93;;
56391;SDS011;42289;53.582;9.714;2022-10-22T10:06:16;14.50;;;7.97;;
56391;SDS011;42289;53.582;9.714;2022-10-22T10:08:43;14.70;;;7.50;;
56391;SDS011;42289;53.582;9.714;2022-10-22T10:11:10;13.98;;;7.05;;
56391;SDS011;42289;53.582;9.714;2022-10-22T10:13:46;13.50;;;6.85;;
56391;SDS011;42289;53.582;9.714;2022-10-22T10:16:25;15.70;;;7.45;;
56391;SDS011;42289;53.582;9.714;2022-10-22T10:19:08;14.63;;;6.75;;
56391;SDS011;42289;53.582;9.714;2022-10-22T10:21:51;13.50;;;7.00;;
56391;SDS011;42289;53.582;9.714;2022-10-22T10:24:25;12.35;;;6.80;;
56391;SDS011;42289;53.582;9.714;2022-10-22T10:27:04;16.38;;;6.22;;
56391;SDS011;42289;53.582;9.714;2022-10-22T10:29:40;14.45;;;7.32;;
56391;SDS011;42289;53.582;9.714;2022-10-22T10:32:18;13.77;;;6.45;;
56391;SDS011;42289;53.582;9.714;2022-10-22T10:34:57;15.88;;;7.00;;
56391;SDS011;42289;53.582;9.714;2022-10-22T10:37:34;14.20;;;5.53;;
56391;SDS011;42289;53.582;9.714;2022-10-22T10:40:18;9.40;;;5.13;;
56391;SDS011;42289;53.582;9.714;2022-10-22T10:42:54;10.00;;;5.07;;
56391;SDS011;42289;53.582;9.714;2022-10-22T10:45:25;11.57;;;5.05;;
56391;SDS011;42289;53.582;9.714;2022-10-22T10:48:09;10.15;;;4.53;;
56391;SDS011;42289;53.582;9.714;2022-10-22T10:50:47;7.55;;;4.25;;
56391;SDS011;42289;53.582;9.714;2022-10-22T10:53:23;8.68;;;4.40;;
56391;SDS011;42289;53.582;9.714;2022-10-22T10:55:58;8.00;;;3.90;;
56391;SDS011;42289;53.582;9.714;2022-10-22T10:58:33;8.43;;;4.03;;
56391;SDS011;42289;53.582;9.714;2022-10-22T11:01:08;8.98;;;4.50;;
56391;SDS011;42289;53.582;9.714;2022-10-22T11:03:46;8.20;;;4.13;;
56391;SDS011;42289;53.582;9.714;2022-10-22T11:06:23;12.15;;;5.38;;
56391;SDS011;42289;53.582;9.714;2022-10-22T11:08:53;11.70;;;5.10;;
56391;SDS011;42289;53.582;9.714;2022-10-22T11:11:25;9.93;;;4.43;;
56391;SDS011;42289;53.582;9.714;2022-10-22T11:13:58;9.68;;;4.43;;
56391;SDS011;42289;53.582;9.714;2022-10-22T11:16:31;9.52;;;4.45;;
56391;SDS011;42289;53.582;9.714;2022-10-22T11:19:03;10.02;;;4.38;;
56391;SDS011;42289;53.582;9.714;2022-10-22T11:21:35;12.57;;;5.50;;
56391;SDS011;42289;53.582;9.714;2022-10-22T11:24:09;9.10;;;4.75;;
56391;SDS011;42289;53.582;9.714;2022-10-22T11:26:43;8.20;;;4.03;;
56391;SDS011;42289;53.582;9.714;2022-10-22T11:29:14;11.65;;;4.40;;
56391;SDS011;42289;53.582;9.714;2022-10-22T11:31:47;9.43;;;3.95;;
56391;SDS011;42289;53.582;9.714;2022-10-22T11:34:17;11.18;;;4.32;;
56391;SDS011;42289;53.582;9.714;2022-10-22T11:36:46;8.90;;;4.35;;
56391;SDS011;42289;53.582;9.714;2022-10-22T11:39:29;11.10;;;4.05;;
56391;SDS011;42289;53.582;9.714;2022-10-22T11:42:00;8.65;;;4.18;;
56391;SDS011;42289;53.582;9.714;2022-10-22T11:44:29;12.45;;;4.07;;
56391;SDS011;42289;53.582;9.714;2022-10-22T11:46:57;9.68;;;3.45;;
56391;SDS011;42289;53.582;9.714;2022-10-22T11:49:40;8.45;;;4.43;;
56391;SDS011;42289;53.582;9.714;2022-10-22T11:58:24;7.72;;;3.53;;
56391;SDS011;42289;53.582;9.714;2022-10-22T12:00:54;7.00;;;2.75;;
56391;SDS011;42289;53.582;9.714;2022-10-22T12:03:22;10.10;;;3.88;;
56391;SDS011;42289;53.582;9.714;2022-10-22T12:06:05;7.13;;;3.10;;
56391;SDS011;42289;53.582;9.714;2022-10-22T12:08:45;12.75;;;3.67;;
56391;SDS011;42289;53.582;9.714;2022-10-22T12:11:19;11.85;;;3.25;;
56391;SDS011;42289;53.582;9.714;2022-10-22T12:13:53;9.80;;;4.13;;
56391;SDS011;42289;53.582;9.714;2022-10-22T12:16:24;7.18;;;3.25;;
56391;SDS011;42289;53.582;9.714;2022-10-22T12:18:54;10.13;;;4.07;;
56391;SDS011;42289;53.582;9.714;2022-10-22T12:21:24;8.15;;;3.92;;
56391;SDS011;42289;53.582;9.714;2022-10-22T12:23:51;8.48;;;4.45;;
56391;SDS011;42289;53.582;9.714;2022-10-22T12:26:26;8.68;;;4.13;;
56391;SDS011;42289;53.582;9.714;2022-10-22T12:28:57;10.18;;;4.72;;
56391;SDS011;42289;53.582;9.714;2022-10-22T12:31:24;9.25;;;4.55;;
56391;SDS011;42289;53.582;9.714;2022-10-22T12:33:56;10.40;;;5.20;;
56391;SDS011;42289;53.582;9.714;2022-10-22T12:36:24;8.60;;;4.10;;
56391;SDS011;42289;53.582;9.714;2022-10-22T12:38:51;8.73;;;4.80;;
56391;SDS011;42289;53.582;9.714;2022-10-22T12:41:18;11.07;;;5.57;;
56391;SDS011;42289;53.582;9.714;2022-10-22T12:43:47;10.27;;;5.22;;
56391;SDS011;42289;53.582;9.714;2022-10-22T12:46:14;9.75;;;4.63;;
56391;SDS011;42289;53.582;9.714;2022-10-22T12:48:42;11.13;;;5.72;;
56391;SDS011;42289;53.582;9.714;2022-10-22T12:51:12;9.52;;;5.15;;
56391;SDS011;42289;53.582;9.714;2022-10-22T12:53:43;9.48;;;5.40;;
56391;SDS011;42289;53.582;9.714;2022-10-22T12:56:12;8.55;;;4.40;;
56391;SDS011;42289;53.582;9.714;2022-10-22T12:58:40;14.73;;;4.95;;
56391;SDS011;42289;53.582;9.714;2022-10-22T13:01:12;9.13;;;4.68;;
56391;SDS011;42289;53.582;9.714;2022-10-22T13:03:41;7.90;;;4.22;;
56391;SDS011;42289;53.582;9.714;2022-10-22T13:06:10;7.47;;;3.67;;
56391;SDS011;42289;53.582;9.714;2022-10-22T13:08:38;8.40;;;3.72;;
56391;SDS011;42289;53.582;9.714;2022-10-22T13:11:05;8.52;;;3.38;;
56391;SDS011;42289;53.582;9.714;2022-10-22T13:13:40;10.63;;;3.28;;
56391;SDS011;42289;53.582;9.714;2022-10-22T13:16:14;6.95;;;3.45;;
56391;SDS011;42289;53.582;9.714;2022-10-22T13:18:43;9.45;;;3.63;;
56391;SDS011;42289;53.582;9.714;2022-10-22T13:21:20;7.50;;;3.17;;
56391;SDS011;42289;53.582;9.714;2022-10-22T13:23:51;6.95;;;3.10;;
56391;SDS011;42289;53.582;9.714;2022-10-22T13:26:18;8.93;;;3.70;;
56391;SDS011;42289;53.582;9.714;2022-10-22T13:28:48;10.65;;;3.50;;
56391;SDS011;42289;53.582;9.714;2022-10-22T13:31:18;9.77;;;3.50;;
56391;SDS011;42289;53.582;9.714;2022-10-22T13:33:50;8.88;;;3.20;;
56391;SDS011;42289;53.582;9.714;2022-10-22T13:36:19;7.43;;;3.28;;
56391;SDS011;42289;53.582;9.714;2022-10-22T13:38:45;10.23;;;3.85;;
56391;SDS011;42289;53.582;9.714;2022-10-22T13:41:19;9.00;;;3.50;;
56391;SDS011;42289;53.582;9.714;2022-10-22T13:43:47;7.07;;;3.13;;
56391;SDS011;42289;53.582;9.714;2022-10-22T13:46:14;9.05;;;3.53;;
56391;SDS011;42289;53.582;9.714;2022-10-22T13:48:42;10.35;;;3.67;;
56391;SDS011;42289;53.582;9.714;2022-10-22T13:51:12;9.18;;;3.78;;
56391;SDS011;42289;53.582;9.714;2022-10-22T13:53:40;13.55;;;3.88;;
56391;SDS011;42289;53.582;9.714;2022-10-22T13:56:09;9.13;;;3.85;;
56391;SDS011;42289;53.582;9.714;2022-10-22T13:58:39;8.90;;;3.50;;
56391;SDS011;42289;53.582;9.714;2022-10-22T14:01:07;9.98;;;3.50;;
56391;SDS011;42289;53.582;9.714;2022-10-22T14:03:44;8.95;;;3.67;;
56391;SDS011;42289;53.582;9.714;2022-10-22T14:06:13;7.75;;;3.10;;
56391;SDS011;42289;53.582;9.714;2022-10-22T14:08:41;7.28;;;2.70;;
56391;SDS011;42289;53.582;9.714;2022-10-22T14:11:10;8.13;;;3.50;;
56391;SDS011;42289;53.582;9.714;2022-10-22T14:13:37;7.10;;;2.90;;
56391;SDS011;42289;53.582;9.714;2022-10-22T14:16:04;7.38;;;2.80;;
56391;SDS011;42289;53.582;9.714;2022-10-22T14:18:32;10.32;;;3.00;;
56391;SDS011;42289;53.582;9.714;2022-10-22T14:21:02;9.73;;;3.35;;
56391;SDS011;42289;53.582;9.714;2022-10-22T14:23:31;7.80;;;3.17;;
56391;SDS011;42289;53.582;9.714;2022-10-22T14:26:00;11.85;;;3.78;;
56391;SDS011;42289;53.582;9.714;2022-10-22T14:28:26;7.80;;;3.13;;
56391;SDS011;42289;53.582;9.714;2022-10-22T14:30:53;10.50;;;3.28;;
56391;SDS011;42289;53.582;9.714;2022-10-22T14:33:22;10.77;;;3.10;;
56391;SDS011;42289;53.582;9.714;2022-10-22T14:35:50;9.07;;;3.08;;
56391;SDS011;42289;53.582;9.714;2022-10-22T14:38:18;7.63;;;3.35;;
56391;SDS011;42289;53.582;9.714;2022-10-22T14:40:44;8.27;;;3.00;;
56391;SDS011;42289;53.582;9.714;2022-10-22T14:43:12;10.05;;;3.60;;
56391;SDS011;42289;53.582;9.714;2022-10-22T14:45:43;7.72;;;3.10;;
56391;SDS011;42289;53.582;9.714;2022-10-22T14:48:09;7.38;;;2.83;;
56391;SDS011;42289;53.582;9.714;2022-10-22T14:50:36;10.52;;;3.67;;
56391;SDS011;42289;53.582;9.714;2022-10-22T14:53:02;12.48;;;3.70;;
56391;SDS011;42289;53.582;9.714;2022-10-22T14:55:30;9.68;;;3.20;;
56391;SDS011;42289;53.582;9.714;2022-10-22T14:57:56;8.35;;;2.63;;